createdAt,value
2017-08-23T00:02:07.148Z,6.30
2017-08-23T00:05:17.897Z,6.90
2017-08-23T00:08:27.813Z,5.20
2017-08-23T00:11:38.361Z,5.27
2017-08-23T00:14:49.507Z,6.37
2017-08-23T00:17:59.280Z,4.90
2017-08-23T00:21:09.738Z,6.00
2017-08-23T00:24:19.668Z,6.70
2017-08-23T00:27:30.198Z,6.53
2017-08-23T00:30:40.692Z,7.05
2017-08-23T00:33:51.159Z,6.57
2017-08-23T00:37:00.639Z,8.32
2017-08-23T00:40:10.868Z,7.47
2017-08-23T00:43:21.061Z,8.30
2017-08-23T00:46:31.101Z,7.43
2017-08-23T00:49:41.142Z,7.97
2017-08-23T00:52:50.893Z,6.20
2017-08-23T00:56:00.892Z,6.63
2017-08-23T00:59:11.617Z,6.20
2017-08-23T01:02:21.393Z,5.78
2017-08-23T01:05:31.638Z,4.77
2017-08-23T01:08:41.597Z,6.97
2017-08-23T01:11:51.604Z,5.50
2017-08-23T01:15:01.425Z,5.17
2017-08-23T01:18:11.969Z,5.50
2017-08-23T01:21:22.290Z,5.57
2017-08-23T01:24:32.904Z,6.20
2017-08-23T01:27:43.056Z,5.07
2017-08-23T01:30:53.790Z,5.10
2017-08-23T01:34:04.173Z,5.00
2017-08-23T01:37:14.525Z,4.78
2017-08-23T01:40:24.946Z,6.00
2017-08-23T01:43:35.539Z,5.00
2017-08-23T01:46:45.602Z,5.90
2017-08-23T01:49:56.355Z,5.18
2017-08-23T01:53:06.643Z,5.30
2017-08-23T01:56:17.385Z,5.82
2017-08-23T01:59:27.199Z,5.20
2017-08-23T02:02:37.378Z,6.43
2017-08-23T02:05:48.002Z,5.85
2017-08-23T02:08:58.028Z,5.32
2017-08-23T02:12:08.093Z,5.43
2017-08-23T02:15:17.981Z,7.03
2017-08-23T02:18:28.632Z,6.03
2017-08-23T02:21:38.976Z,6.80
2017-08-23T02:24:48.891Z,6.30
2017-08-23T02:27:59.295Z,6.15
2017-08-23T02:31:09.304Z,6.93
2017-08-23T02:34:19.568Z,6.40
2017-08-23T02:37:30.056Z,5.30
2017-08-23T02:40:40.513Z,5.13
2017-08-23T02:43:50.449Z,5.23
2017-08-23T02:47:00.966Z,4.80
2017-08-23T02:50:11.419Z,5.40
2017-08-23T02:53:21.999Z,6.40
2017-08-23T02:56:31.871Z,6.78
2017-08-23T02:59:41.766Z,5.82
2017-08-23T03:02:51.714Z,5.62
2017-08-23T03:06:01.866Z,6.93
2017-08-23T03:09:12.337Z,5.78
2017-08-23T03:12:22.565Z,6.60
2017-08-23T03:15:32.433Z,6.00
2017-08-23T03:18:43.215Z,5.60
2017-08-23T03:21:53.110Z,6.03
2017-08-23T03:25:03.214Z,5.40
2017-08-23T03:28:13.817Z,6.70
2017-08-23T03:31:24.135Z,5.30
2017-08-23T03:34:33.931Z,5.95
2017-08-23T03:37:44.108Z,5.20
2017-08-23T03:40:54.541Z,5.80
2017-08-23T03:44:04.586Z,5.80
2017-08-23T03:47:15.145Z,4.97
2017-08-23T03:50:25.772Z,6.00
2017-08-23T03:53:35.205Z,4.03
2017-08-23T03:56:45.065Z,5.60
2017-08-23T03:59:55.008Z,5.22
2017-08-23T04:03:05.125Z,5.55
2017-08-23T04:06:19.214Z,5.62
2017-08-23T04:09:29.117Z,5.83
2017-08-23T04:12:39.192Z,6.53
2017-08-23T04:15:48.826Z,7.20
2017-08-23T04:18:59.530Z,6.72
2017-08-23T04:22:10.345Z,7.00
2017-08-23T04:25:20.496Z,5.53
2017-08-23T04:28:31.064Z,6.75
2017-08-23T04:31:41.601Z,6.10
2017-08-23T04:34:52.123Z,6.10
2017-08-23T04:38:02.512Z,5.40
2017-08-23T04:41:13.074Z,6.23
2017-08-23T04:44:23.181Z,5.80
2017-08-23T04:47:33.820Z,4.60
2017-08-23T04:50:44.108Z,4.53
2017-08-23T04:53:54.316Z,4.43
2017-08-23T04:57:04.738Z,5.60
2017-08-23T05:00:14.723Z,5.90
2017-08-23T05:03:26.253Z,5.40
2017-08-23T05:06:37.042Z,4.95
2017-08-23T05:09:47.364Z,5.47
2017-08-23T05:12:57.964Z,5.05
2017-08-23T05:16:07.771Z,5.10
2017-08-23T05:19:17.787Z,5.03
2017-08-23T05:22:28.084Z,4.20
2017-08-23T05:25:38.773Z,3.78
2017-08-23T05:28:48.915Z,5.23
2017-08-23T05:31:58.447Z,4.10
2017-08-23T05:35:08.720Z,5.40
2017-08-23T05:38:18.659Z,4.93
2017-08-23T05:41:29.244Z,4.70
2017-08-23T05:44:39.581Z,6.33
2017-08-23T05:47:50.114Z,6.50
2017-08-23T05:51:00.340Z,6.20
2017-08-23T05:54:11.061Z,7.47
2017-08-23T05:57:21.843Z,4.93
2017-08-23T06:00:32.463Z,6.13
2017-08-23T06:03:42.708Z,4.85
2017-08-23T06:06:53.328Z,4.97
2017-08-23T06:10:03.697Z,4.20
2017-08-23T06:13:13.875Z,4.70
2017-08-23T06:16:24.292Z,4.67
2017-08-23T06:19:34.206Z,4.23
2017-08-23T06:22:44.733Z,4.93
2017-08-23T06:25:55.004Z,4.72
2017-08-23T06:29:05.829Z,4.75
2017-08-23T06:32:15.954Z,5.30
2017-08-23T06:35:26.253Z,5.40
2017-08-23T06:38:36.757Z,5.00
2017-08-23T06:41:46.865Z,5.82
2017-08-23T06:44:56.930Z,3.80
2017-08-23T06:48:08.184Z,5.20
2017-08-23T06:51:18.746Z,4.45
2017-08-23T06:54:28.816Z,4.43
2017-08-23T06:57:38.869Z,5.32
2017-08-23T07:00:48.711Z,4.90
2017-08-23T07:03:58.818Z,4.12
2017-08-23T07:07:09.148Z,3.57
2017-08-23T07:10:19.762Z,6.22
2017-08-23T07:13:30.014Z,4.47
2017-08-23T07:16:40.351Z,4.43
2017-08-23T07:19:50.280Z,5.40
2017-08-23T07:23:00.473Z,4.87
2017-08-23T07:26:10.927Z,4.60
2017-08-23T07:29:21.836Z,4.00
2017-08-23T07:32:32.184Z,5.18
2017-08-23T07:35:42.214Z,4.30
2017-08-23T07:38:52.607Z,4.17
2017-08-23T07:42:04.190Z,6.35
2017-08-23T07:45:13.829Z,3.63
2017-08-23T07:48:23.721Z,3.67
2017-08-23T07:51:34.425Z,4.57
2017-08-23T07:54:44.910Z,4.40
2017-08-23T07:57:55.253Z,4.07
2017-08-23T08:01:05.779Z,4.18
2017-08-23T08:04:16.209Z,3.73
2017-08-23T08:07:26.388Z,3.10
2017-08-23T08:10:36.600Z,3.80
2017-08-23T08:13:47.039Z,3.62
2017-08-23T08:16:59.801Z,3.53
2017-08-23T08:20:10.454Z,2.65
2017-08-23T08:23:20.833Z,3.70
2017-08-23T08:26:31.016Z,3.17
2017-08-23T08:29:41.616Z,4.32
2017-08-23T08:32:51.874Z,3.95
2017-08-23T08:36:02.241Z,3.33
2017-08-23T08:39:12.493Z,3.50
2017-08-23T08:42:22.434Z,8.43
2017-08-23T08:45:32.316Z,3.25
2017-08-23T08:48:42.406Z,4.00
2017-08-23T08:51:52.061Z,3.90
2017-08-23T08:55:02.821Z,3.67
2017-08-23T08:58:12.939Z,4.95
2017-08-23T09:01:23.406Z,4.40
2017-08-23T09:04:33.129Z,4.10
2017-08-23T09:07:43.584Z,4.07
2017-08-23T09:10:54.314Z,3.50
2017-08-23T09:14:04.769Z,5.18
2017-08-23T09:17:15.287Z,4.00
2017-08-23T09:20:25.339Z,4.40
2017-08-23T09:23:35.605Z,4.77
2017-08-23T09:26:45.499Z,4.18
2017-08-23T09:29:55.765Z,4.30
2017-08-23T09:33:06.092Z,4.17
2017-08-23T09:36:15.701Z,4.30
2017-08-23T09:39:26.265Z,3.70
2017-08-23T09:42:36.481Z,3.37
2017-08-23T09:45:47.184Z,3.70
2017-08-23T09:48:57.435Z,4.00
2017-08-23T09:52:07.756Z,3.47
2017-08-23T09:55:18.221Z,3.90
2017-08-23T09:58:28.164Z,3.60
2017-08-23T10:01:38.563Z,4.43
2017-08-23T10:04:48.643Z,4.30
2017-08-23T10:07:58.874Z,4.40
2017-08-23T10:11:08.800Z,4.05
2017-08-23T10:14:19.260Z,4.70
2017-08-23T10:17:29.469Z,3.60
2017-08-23T10:21:20.593Z,4.33
2017-08-23T10:24:30.526Z,3.40
2017-08-23T10:27:40.908Z,2.40
2017-08-23T10:30:51.062Z,2.73
2017-08-23T10:34:01.276Z,3.23
2017-08-23T10:37:11.443Z,3.50
2017-08-23T10:40:22.043Z,3.15
2017-08-23T10:43:32.100Z,3.50
2017-08-23T10:46:42.755Z,3.05
2017-08-23T10:49:53.137Z,5.32
2017-08-23T10:53:03.435Z,3.03
2017-08-23T10:56:13.511Z,3.83
2017-08-23T10:59:23.663Z,4.53
2017-08-23T11:02:33.937Z,3.50
2017-08-23T11:05:44.158Z,5.03
2017-08-23T11:08:54.364Z,4.68
2017-08-23T11:12:04.685Z,3.60
2017-08-23T11:15:18.342Z,5.18
2017-08-23T11:18:28.271Z,3.33
2017-08-23T11:21:38.433Z,4.33
2017-08-23T11:24:48.769Z,3.90
2017-08-23T11:27:58.820Z,4.10
2017-08-23T11:31:08.796Z,3.97
2017-08-23T11:34:19.075Z,4.85
2017-08-23T11:37:30.056Z,4.47
2017-08-23T11:40:40.613Z,3.97
2017-08-23T11:43:50.711Z,4.20
2017-08-23T11:47:01.556Z,3.87
2017-08-23T11:50:11.504Z,4.72
2017-08-23T11:53:21.673Z,4.50
2017-08-23T11:56:35.731Z,4.72
2017-08-23T11:59:46.167Z,4.20
2017-08-23T12:02:56.521Z,3.60
2017-08-23T12:06:06.644Z,4.18
2017-08-23T12:09:16.977Z,4.15
2017-08-23T12:12:28.165Z,4.37
2017-08-23T12:15:38.355Z,4.20
2017-08-23T12:18:48.567Z,4.18
2017-08-23T12:21:58.884Z,3.85
2017-08-23T12:25:09.283Z,4.60
2017-08-23T12:28:19.938Z,3.93
2017-08-23T12:31:29.665Z,3.95
2017-08-23T12:34:40.487Z,4.80
2017-08-23T12:37:50.537Z,3.73
2017-08-23T12:41:01.398Z,4.85
2017-08-23T12:44:11.487Z,4.85
2017-08-23T12:47:22.048Z,4.00
2017-08-23T12:50:32.218Z,4.12
2017-08-23T12:53:42.464Z,5.05
2017-08-23T12:56:52.925Z,3.70
2017-08-23T13:00:03.128Z,5.00
2017-08-23T13:03:13.370Z,5.62
2017-08-23T13:06:23.868Z,4.80
2017-08-23T13:09:34.009Z,5.20
2017-08-23T13:12:44.002Z,3.80
2017-08-23T13:15:53.812Z,4.30
2017-08-23T13:19:03.978Z,4.00
2017-08-23T13:22:14.617Z,4.27
2017-08-23T13:25:24.696Z,4.57
2017-08-23T13:28:35.169Z,4.57
2017-08-23T13:31:45.280Z,4.40
2017-08-23T13:34:55.666Z,4.40
2017-08-23T13:38:05.629Z,4.57
2017-08-23T13:41:16.095Z,5.07
2017-08-23T13:44:26.551Z,4.90
2017-08-23T13:47:36.896Z,4.45
2017-08-23T13:50:46.961Z,4.85
2017-08-23T13:53:57.726Z,4.33
2017-08-23T13:57:07.833Z,4.53
2017-08-23T14:00:18.105Z,4.65
2017-08-23T14:03:28.816Z,3.92
2017-08-23T14:06:39.964Z,4.00
2017-08-23T14:09:50.018Z,5.20
2017-08-23T14:13:00.548Z,3.80
2017-08-23T14:16:10.844Z,4.65
2017-08-23T14:19:21.116Z,4.75
2017-08-23T14:22:31.683Z,4.72
2017-08-23T14:25:43.017Z,5.03
2017-08-23T14:28:53.049Z,4.85
2017-08-23T14:32:03.310Z,4.85
2017-08-23T14:35:13.077Z,4.43
2017-08-23T14:38:23.148Z,5.20
2017-08-23T14:41:33.216Z,4.37
2017-08-23T14:44:43.565Z,4.20
2017-08-23T14:47:53.353Z,5.57
2017-08-23T14:51:03.621Z,3.90
2017-08-23T14:54:13.785Z,6.00
2017-08-23T14:57:24.087Z,4.63
2017-08-23T15:00:34.415Z,4.20
2017-08-23T15:03:44.419Z,4.75
2017-08-23T15:06:54.038Z,3.40
2017-08-23T15:10:04.132Z,4.33
2017-08-23T15:13:14.468Z,4.00
2017-08-23T15:16:25.061Z,4.50
2017-08-23T15:19:35.303Z,4.83
2017-08-23T15:22:45.040Z,5.10
2017-08-23T15:25:56.172Z,4.55
2017-08-23T15:29:06.344Z,4.47
2017-08-23T15:32:16.619Z,4.60
2017-08-23T15:35:26.980Z,5.83
2017-08-23T15:38:37.087Z,4.50
2017-08-23T15:41:47.448Z,4.50
2017-08-23T15:44:57.685Z,3.90
2017-08-23T15:48:07.700Z,5.40
2017-08-23T15:51:17.961Z,4.50
2017-08-23T15:54:28.234Z,5.07
2017-08-23T15:57:38.578Z,3.78
2017-08-23T16:00:48.913Z,5.12
2017-08-23T16:03:59.156Z,5.43
2017-08-23T16:07:09.173Z,3.90
2017-08-23T16:10:20.016Z,4.30
2017-08-23T16:13:30.341Z,4.50
2017-08-23T16:16:40.277Z,4.17
2017-08-23T16:19:50.735Z,4.90
2017-08-23T16:23:00.895Z,4.32
2017-08-23T16:26:12.057Z,4.30
2017-08-23T16:29:21.663Z,5.50
2017-08-23T16:32:32.296Z,5.70
2017-08-23T16:35:42.873Z,5.20
2017-08-23T16:38:53.228Z,4.67
2017-08-23T16:42:03.461Z,4.68
2017-08-23T16:45:13.849Z,6.90
2017-08-23T16:48:24.532Z,5.20
2017-08-23T16:51:35.141Z,4.37
2017-08-23T16:54:45.449Z,4.40
2017-08-23T16:57:56.205Z,4.60
2017-08-23T17:01:06.633Z,4.57
2017-08-23T17:04:16.981Z,5.22
2017-08-23T17:07:27.340Z,4.47
2017-08-23T17:10:37.555Z,4.00
2017-08-23T17:13:47.968Z,5.70
2017-08-23T17:16:58.341Z,4.50
2017-08-23T17:20:08.534Z,4.40
2017-08-23T17:23:18.993Z,4.90
2017-08-23T17:26:29.029Z,4.27
2017-08-23T17:29:40.156Z,4.33
2017-08-23T17:32:50.992Z,4.20
2017-08-23T17:36:01.281Z,4.47
2017-08-23T17:39:11.630Z,4.50
2017-08-23T17:42:21.710Z,4.05
2017-08-23T17:45:32.113Z,3.45
2017-08-23T17:48:42.621Z,4.77
2017-08-23T17:51:52.760Z,6.80
2017-08-23T17:55:03.042Z,4.90
2017-08-23T17:58:12.893Z,4.70
2017-08-23T18:01:23.229Z,4.03
2017-08-23T18:04:33.494Z,4.40
2017-08-23T18:07:43.497Z,4.75
2017-08-23T18:10:53.971Z,4.50
2017-08-23T18:14:04.225Z,3.90
2017-08-23T18:17:14.084Z,4.70
2017-08-23T18:20:24.284Z,3.80
2017-08-23T18:23:34.628Z,4.17
2017-08-23T18:26:45.181Z,4.87
2017-08-23T18:29:55.038Z,4.90
2017-08-23T18:33:05.358Z,4.53
2017-08-23T18:36:15.945Z,4.40
2017-08-23T18:39:26.148Z,4.20
2017-08-23T18:42:36.604Z,4.15
2017-08-23T18:45:47.658Z,3.80
2017-08-23T18:48:57.151Z,4.37
2017-08-23T18:52:07.478Z,4.00
2017-08-23T18:55:17.341Z,4.17
2017-08-23T18:58:27.548Z,4.90
2017-08-23T19:01:37.709Z,5.20
2017-08-23T19:04:47.629Z,5.00
2017-08-23T19:07:58.460Z,4.77
2017-08-23T19:11:08.650Z,5.07
2017-08-23T19:14:19.216Z,5.50
2017-08-23T19:17:29.956Z,6.43
2017-08-23T19:20:40.450Z,6.50
2017-08-23T19:23:50.504Z,6.07
2017-08-23T19:27:00.704Z,6.15
2017-08-23T19:30:11.633Z,12.05
2017-08-23T19:33:22.081Z,6.35
2017-08-23T19:36:32.140Z,5.23
2017-08-23T19:39:43.025Z,5.78
2017-08-23T19:42:53.403Z,7.43
2017-08-23T19:46:03.997Z,7.40
2017-08-23T19:49:14.458Z,6.83
2017-08-23T19:52:24.704Z,5.97
2017-08-23T19:55:35.974Z,8.40
2017-08-23T19:58:46.472Z,6.77
2017-08-23T20:01:56.640Z,6.22
2017-08-23T20:05:06.861Z,8.40
2017-08-23T20:08:17.520Z,8.40
2017-08-23T20:11:28.212Z,7.60
2017-08-23T20:14:38.693Z,7.30
2017-08-23T20:17:48.709Z,7.67
2017-08-23T20:20:58.916Z,8.10
2017-08-23T20:24:09.873Z,7.95
2017-08-23T20:27:20.228Z,8.87
2017-08-23T20:30:30.281Z,7.55
2017-08-23T20:33:40.448Z,7.20
2017-08-23T20:36:50.481Z,8.70
2017-08-23T20:40:01.062Z,7.12
2017-08-23T20:43:11.852Z,7.07
2017-08-23T20:46:21.994Z,8.07
2017-08-23T20:49:32.461Z,7.30
2017-08-23T20:52:42.510Z,7.40
2017-08-23T20:55:52.910Z,7.50
2017-08-23T20:59:03.441Z,7.10
2017-08-23T21:02:13.899Z,6.25
2017-08-23T21:05:24.797Z,7.20
2017-08-23T21:08:34.929Z,6.90
2017-08-23T21:11:45.251Z,6.93
2017-08-23T21:14:56.185Z,7.97
2017-08-23T21:18:07.073Z,7.30
2017-08-23T21:21:17.381Z,7.80
2017-08-23T21:24:28.184Z,7.78
2017-08-23T21:27:38.332Z,7.75
2017-08-23T21:30:49.622Z,7.73
2017-08-23T21:33:59.872Z,5.80
2017-08-23T21:37:09.784Z,7.10
2017-08-23T21:40:20.393Z,7.57
2017-08-23T21:43:30.848Z,7.20
2017-08-23T21:46:41.080Z,6.83
2017-08-23T21:49:51.686Z,6.60
2017-08-23T21:53:01.863Z,7.00
2017-08-23T21:56:11.712Z,7.50
2017-08-23T21:59:21.907Z,5.40
2017-08-23T22:02:32.125Z,6.00
2017-08-23T22:05:41.985Z,7.00
2017-08-23T22:08:51.845Z,7.03
2017-08-23T22:12:02.182Z,7.80
2017-08-23T22:15:13.164Z,6.90
2017-08-23T22:18:23.317Z,5.83
2017-08-23T22:21:33.112Z,7.43
2017-08-23T22:24:43.969Z,6.40
2017-08-23T22:27:54.258Z,7.03
2017-08-23T22:31:05.111Z,7.00
2017-08-23T22:34:15.312Z,7.63
2017-08-23T22:37:25.095Z,7.28
2017-08-23T22:40:35.562Z,6.93
2017-08-23T22:43:45.472Z,6.40
2017-08-23T22:46:55.541Z,6.53
2017-08-23T22:50:05.654Z,5.80
2017-08-23T22:53:16.449Z,7.12
2017-08-23T22:56:26.443Z,5.82
2017-08-23T22:59:36.951Z,6.97
2017-08-23T23:02:46.760Z,7.50
2017-08-23T23:05:56.832Z,7.80
2017-08-23T23:09:07.104Z,7.13
2017-08-23T23:12:17.075Z,7.17
2017-08-23T23:15:26.965Z,6.80
2017-08-23T23:18:38.423Z,7.12
2017-08-23T23:21:48.717Z,6.53
2017-08-23T23:24:59.284Z,6.57
2017-08-23T23:28:09.701Z,7.18
2017-08-23T23:31:20.296Z,7.03
2017-08-23T23:34:30.916Z,8.20
2017-08-23T23:37:41.128Z,6.30
2017-08-23T23:40:51.387Z,7.93
2017-08-23T23:44:01.165Z,6.50
2017-08-23T23:47:11.803Z,7.68
2017-08-23T23:50:22.549Z,6.27
2017-08-23T23:53:32.448Z,6.47
2017-08-23T23:56:43.383Z,6.47
2017-08-23T23:59:52.890Z,6.37
